Time;durP1;ratioP1;P1;durP2;ratioP2;P2;SDS_P1;SDS_P2;PMS_P1;PMS_P2;Temp;Humidity;BMP_temperature;BMP_pressure;BME280_temperature;BME280_humidity;BME280_pressure;Samples;Min_cycle;Max_cycle;Signal;HPM_P1;HPM_P2
2023/11/17 00:00:12;;;;;;;6.63;4.37;;;3.60;99.90;;;;;;5087127;28;20747;-65
2023/11/17 00:02:40;;;;;;;4.80;4.30;;;3.60;99.90;;;;;;5087326;28;20207;-65
2023/11/17 00:05:07;;;;;;;3.97;3.57;;;3.50;99.90;;;;;;5086960;28;20199;-66
2023/11/17 00:07:34;;;;;;;3.80;3.50;;;3.50;99.90;;;;;;5087158;28;20262;-66
2023/11/17 00:10:03;;;;;;;3.60;3.40;;;3.60;99.90;;;;;;5086873;28;20210;-66
2023/11/17 00:12:30;;;;;;;4.20;3.50;;;3.50;99.90;;;;;;5087197;28;20203;-65
2023/11/17 00:14:57;;;;;;;3.80;3.60;;;3.70;99.90;;;;;;5087191;28;20270;-65
2023/11/17 00:17:24;;;;;;;3.63;3.43;;;3.60;99.90;;;;;;5087125;28;20246;-66
2023/11/17 00:19:51;;;;;;;3.70;3.40;;;3.50;99.90;;;;;;5086453;28;20315;-65
2023/11/17 00:22:18;;;;;;;3.40;3.20;;;3.40;99.90;;;;;;5086790;28;20214;-66
2023/11/17 00:24:45;;;;;;;3.67;3.37;;;3.40;99.90;;;;;;5086811;28;20217;-65
2023/11/17 00:27:14;;;;;;;4.83;3.50;;;3.40;99.90;;;;;;5086746;28;20290;-66
2023/11/17 00:29:41;;;;;;;3.60;3.40;;;3.40;99.90;;;;;;5086723;28;20218;-65
2023/11/17 00:32:08;;;;;;;6.00;5.50;;;3.40;99.90;;;;;;5086188;28;20679;-66
2023/11/17 00:34:35;;;;;;;4.03;3.60;;;3.50;99.90;;;;;;5086074;28;20298;-65
2023/11/17 00:37:06;;;;;;;3.97;3.57;;;3.60;99.90;;;;;;5086134;28;20203;-66
2023/11/17 00:39:34;;;;;;;4.13;3.50;;;3.50;99.90;;;;;;5085349;28;20697;-66
2023/11/17 00:42:02;;;;;;;3.20;3.00;;;3.60;99.90;;;;;;5086700;28;20248;-65
2023/11/17 00:44:31;;;;;;;3.63;3.43;;;3.50;99.90;;;;;;5086976;28;20203;-65
2023/11/17 00:46:57;;;;;;;3.60;3.40;;;3.60;99.90;;;;;;5086144;28;20209;-65
2023/11/17 00:49:25;;;;;;;2.93;2.73;;;3.60;99.90;;;;;;5086782;28;20237;-65
2023/11/17 00:51:52;;;;;;;4.17;3.27;;;3.60;99.90;;;;;;5086684;28;21004;-65
2023/11/17 00:54:25;;;;;;;3.60;3.30;;;3.60;99.90;;;;;;5089495;28;20213;-65
2023/11/17 00:56:54;;;;;;;3.17;2.97;;;3.70;99.90;;;;;;5086683;28;20726;-65
2023/11/17 00:59:21;;;;;;;3.30;3.10;;;3.60;99.90;;;;;;5086852;28;20341;-65
2023/11/17 01:01:59;;;;;;;3.20;3.00;;;3.60;99.90;;;;;;5086768;28;20209;-65
2023/11/17 01:04:27;;;;;;;3.40;3.20;;;3.70;99.90;;;;;;5086236;28;20306;-65
2023/11/17 01:06:54;;;;;;;3.70;3.40;;;3.70;99.90;;;;;;5086485;28;20249;-66
2023/11/17 01:09:21;;;;;;;3.10;2.90;;;3.70;99.90;;;;;;5086083;28;20191;-66
2023/11/17 01:11:48;;;;;;;3.10;2.90;;;3.80;99.90;;;;;;5098476;28;20198;-66
2023/11/17 01:14:15;;;;;;;3.10;2.90;;;3.80;99.90;;;;;;5106534;28;20233;-66
2023/11/17 01:16:42;;;;;;;3.03;2.83;;;3.90;99.90;;;;;;5106784;28;20329;-65
2023/11/17 01:19:10;;;;;;;3.23;2.93;;;3.80;99.90;;;;;;5098924;28;20624;-65
2023/11/17 01:21:37;;;;;;;2.97;2.77;;;3.80;99.90;;;;;;5086697;28;20256;-65
2023/11/17 01:24:05;;;;;;;2.93;2.73;;;3.80;99.90;;;;;;5085722;28;20323;-66
2023/11/17 01:26:32;;;;;;;3.10;2.90;;;3.90;99.90;;;;;;5085701;28;20206;-65
2023/11/17 01:29:00;;;;;;;2.80;2.70;;;4.00;99.90;;;;;;5085490;28;20699;-66
2023/11/17 01:31:27;;;;;;;2.70;2.60;;;4.00;99.90;;;;;;5085433;28;20309;-67
2023/11/17 01:33:54;;;;;;;3.20;2.67;;;3.90;99.90;;;;;;5085625;28;20201;-65
2023/11/17 01:36:22;;;;;;;2.80;2.60;;;3.80;99.90;;;;;;5076178;28;20213;-65
2023/11/17 01:38:52;;;;;;;3.10;2.80;;;3.90;99.90;;;;;;5085522;28;20202;-65
2023/11/17 01:41:19;;;;;;;2.50;2.40;;;3.90;99.90;;;;;;5085089;28;20272;-66
2023/11/17 01:43:47;;;;;;;2.87;2.67;;;3.90;99.90;;;;;;5085246;28;20298;-65
2023/11/17 01:46:14;;;;;;;2.50;2.40;;;3.90;99.90;;;;;;5085775;28;20199;-65
2023/11/17 01:48:41;;;;;;;3.03;2.83;;;3.90;99.90;;;;;;5085118;28;20994;-65
2023/11/17 01:51:08;;;;;;;3.03;2.70;;;3.90;99.90;;;;;;5085260;28;20207;-66
2023/11/17 01:53:36;;;;;;;3.10;2.90;;;3.80;99.90;;;;;;5101458;28;20255;-65
2023/11/17 01:56:05;;;;;;;2.57;2.37;;;3.80;99.90;;;;;;5105846;28;20231;-65
2023/11/17 01:58:33;;;;;;;2.73;2.60;;;3.90;99.90;;;;;;5104814;28;20210;-65
2023/11/17 02:01:00;;;;;;;2.70;2.60;;;3.80;99.90;;;;;;5105476;28;20229;-66
2023/11/17 02:03:28;;;;;;;2.60;2.50;;;3.90;99.90;;;;;;5105333;28;20305;-65
2023/11/17 02:06:05;;;;;;;2.37;2.27;;;3.90;99.90;;;;;;5088135;28;20312;-65
2023/11/17 02:08:43;;;;;;;3.10;2.90;;;3.80;99.90;;;;;;5084583;28;20252;-65
2023/11/17 02:11:20;;;;;;;2.90;2.70;;;3.80;99.90;;;;;;5084756;28;20209;-65
2023/11/17 02:13:52;;;;;;;2.60;2.50;;;3.80;99.90;;;;;;5085212;28;20190;-66
2023/11/17 02:16:24;;;;;;;2.90;2.70;;;3.80;99.90;;;;;;5085133;28;20200;-65
2023/11/17 02:18:54;;;;;;;2.90;2.70;;;3.80;99.90;;;;;;5085103;28;20659;-66
2023/11/17 02:21:29;;;;;;;2.20;2.10;;;3.80;99.90;;;;;;5065085;28;20230;-65
2023/11/17 02:23:59;;;;;;;2.13;2.03;;;3.80;99.90;;;;;;5084125;28;20205;-65
2023/11/17 02:26:36;;;;;;;2.73;2.53;;;3.80;99.90;;;;;;5085222;28;20609;-66
2023/11/17 02:29:09;;;;;;;2.53;2.43;;;3.80;99.90;;;;;;5084980;28;20302;-65
2023/11/17 02:31:39;;;;;;;4.53;2.60;;;3.80;99.90;;;;;;5084612;28;20551;-65
2023/11/17 02:34:08;;;;;;;2.80;2.60;;;3.80;99.90;;;;;;5084359;28;20207;-66
2023/11/17 02:36:36;;;;;;;2.50;2.30;;;3.80;99.90;;;;;;5084306;28;20206;-66
2023/11/17 02:39:14;;;;;;;2.33;2.23;;;3.90;99.90;;;;;;5084245;28;20553;-65
2023/11/17 02:41:47;;;;;;;2.57;2.47;;;4.00;99.90;;;;;;5084183;28;20258;-66
2023/11/17 02:44:15;;;;;;;2.70;2.27;;;4.00;99.90;;;;;;5084818;28;20225;-66
2023/11/17 02:46:45;;;;;;;2.33;2.20;;;4.10;99.90;;;;;;5084983;28;20249;-66
2023/11/17 02:49:22;;;;;;;2.50;2.40;;;4.10;99.90;;;;;;5084435;28;20234;-66
2023/11/17 02:51:51;;;;;;;3.43;2.57;;;4.00;99.90;;;;;;5084964;28;20191;-65
2023/11/17 02:54:22;;;;;;;2.73;2.63;;;4.10;99.90;;;;;;5084644;28;20747;-66
2023/11/17 02:56:50;;;;;;;2.80;2.63;;;4.00;99.90;;;;;;5084705;28;20194;-66
2023/11/17 02:59:19;;;;;;;2.73;2.53;;;4.00;99.90;;;;;;5084717;28;20283;-65
2023/11/17 03:01:50;;;;;;;2.83;2.63;;;3.90;99.90;;;;;;5084529;28;20269;-65
2023/11/17 03:04:17;;;;;;;2.90;2.70;;;3.90;99.90;;;;;;5084348;28;20218;-65
2023/11/17 03:06:48;;;;;;;2.90;2.80;;;3.80;99.90;;;;;;5084196;28;20294;-66
2023/11/17 03:09:16;;;;;;;4.43;3.73;;;3.80;99.90;;;;;;5084473;28;20199;-65
2023/11/17 03:11:44;;;;;;;3.50;3.27;;;3.80;99.90;;;;;;5088320;28;20221;-65
2023/11/17 03:14:11;;;;;;;3.60;3.30;;;3.70;99.90;;;;;;5088041;28;20287;-65
2023/11/17 03:16:38;;;;;;;3.47;3.27;;;3.70;99.90;;;;;;5088490;28;20215;-65
2023/11/17 03:19:10;;;;;;;5.33;3.60;;;3.70;99.90;;;;;;5087972;28;20255;-65
2023/11/17 03:21:40;;;;;;;3.43;3.23;;;3.60;99.90;;;;;;5088092;28;20238;-65
2023/11/17 03:24:14;;;;;;;4.03;3.73;;;3.60;99.90;;;;;;5068634;28;20196;-65
2023/11/17 03:26:42;;;;;;;3.70;3.40;;;3.70;99.90;;;;;;5068794;28;20241;-66
2023/11/17 03:29:09;;;;;;;3.70;3.40;;;3.60;99.90;;;;;;5068408;28;20742;-65
2023/11/17 03:31:36;;;;;;;3.47;3.27;;;3.60;99.90;;;;;;5068084;28;20290;-65
2023/11/17 03:34:03;;;;;;;3.63;3.43;;;3.60;99.90;;;;;;5079936;28;20213;-65
2023/11/17 03:36:31;;;;;;;3.70;3.50;;;3.60;99.90;;;;;;5088014;28;20213;-65
2023/11/17 03:38:58;;;;;;;3.83;3.63;;;3.60;99.90;;;;;;5087493;28;20207;-65
2023/11/17 03:41:24;;;;;;;3.77;3.57;;;3.70;99.90;;;;;;5087692;28;20353;-65
2023/11/17 03:43:51;;;;;;;3.83;3.63;;;3.70;99.90;;;;;;5087416;28;20330;-65
2023/11/17 03:46:18;;;;;;;4.27;3.97;;;3.70;99.90;;;;;;5087399;28;20268;-66
2023/11/17 03:48:45;;;;;;;3.80;3.60;;;3.60;99.90;;;;;;5088073;28;20317;-65
2023/11/17 03:51:12;;;;;;;3.60;3.40;;;3.70;99.90;;;;;;5088124;28;20289;-66
2023/11/17 03:53:43;;;;;;;3.83;3.53;;;3.70;99.90;;;;;;5088053;28;20210;-65
2023/11/17 03:56:13;;;;;;;3.83;3.60;;;3.70;99.90;;;;;;5088147;28;20301;-66
2023/11/17 03:58:39;;;;;;;3.80;3.60;;;3.70;99.90;;;;;;5087977;28;20793;-66
2023/11/17 04:01:08;;;;;;;3.57;3.37;;;3.70;99.90;;;;;;5087394;28;20226;-66
2023/11/17 04:03:36;;;;;;;3.40;3.20;;;3.70;99.90;;;;;;5087898;28;20203;-66
2023/11/17 04:06:03;;;;;;;6.53;5.17;;;3.70;99.90;;;;;;5087330;28;20207;-66
2023/11/17 04:08:30;;;;;;;3.93;3.57;;;3.70;99.90;;;;;;5087161;28;20299;-66
2023/11/17 04:10:58;;;;;;;3.60;3.40;;;3.80;99.90;;;;;;5087208;28;20727;-66
2023/11/17 04:13:25;;;;;;;3.90;3.60;;;3.80;99.90;;;;;;5087254;28;20293;-65
2023/11/17 04:15:52;;;;;;;3.60;3.40;;;3.70;99.90;;;;;;5087271;28;21009;-65
2023/11/17 04:18:19;;;;;;;3.17;3.00;;;3.70;99.90;;;;;;5087436;28;20230;-65
2023/11/17 04:20:48;;;;;;;3.60;3.30;;;3.70;99.90;;;;;;5087287;28;20234;-66
2023/11/17 04:23:15;;;;;;;3.50;3.30;;;3.80;99.90;;;;;;5086718;28;20571;-66
2023/11/17 04:25:42;;;;;;;3.43;3.20;;;3.80;99.90;;;;;;5087715;28;20608;-66
2023/11/17 04:28:10;;;;;;;3.50;3.30;;;3.70;99.90;;;;;;5087080;28;20406;-65
2023/11/17 04:30:37;;;;;;;3.40;3.20;;;3.70;99.90;;;;;;5086651;28;20676;-66
2023/11/17 04:33:03;;;;;;;3.30;3.10;;;3.70;99.90;;;;;;5086927;28;20690;-65
2023/11/17 04:35:30;;;;;;;3.63;3.33;;;3.70;99.90;;;;;;5086517;28;20213;-66
2023/11/17 04:37:57;;;;;;;3.77;3.57;;;3.70;99.90;;;;;;5086081;28;20242;-66
2023/11/17 04:40:24;;;;;;;3.57;3.27;;;3.70;99.90;;;;;;5087544;28;20245;-66
2023/11/17 04:42:51;;;;;;;3.40;3.10;;;3.70;99.90;;;;;;5086330;28;20210;-66
2023/11/17 04:45:20;;;;;;;3.20;3.00;;;3.70;99.90;;;;;;5086269;28;20306;-67
2023/11/17 04:47:48;;;;;;;3.40;3.20;;;3.70;99.90;;;;;;5086738;28;20227;-65
2023/11/17 04:50:15;;;;;;;3.40;3.20;;;3.70;99.90;;;;;;5086627;28;20199;-65
2023/11/17 04:52:43;;;;;;;3.47;3.27;;;3.70;99.90;;;;;;5095410;28;20249;-65
2023/11/17 04:55:13;;;;;;;3.13;2.93;;;3.80;99.90;;;;;;5106996;28;20202;-64
2023/11/17 04:57:40;;;;;;;3.60;3.30;;;3.80;99.90;;;;;;5088715;28;20613;-65
2023/11/17 05:00:13;;;;;;;3.23;3.03;;;3.80;99.90;;;;;;5085794;28;20237;-65
2023/11/17 05:02:42;;;;;;;3.50;3.30;;;3.80;99.90;;;;;;5086213;28;20197;-65
2023/11/17 05:05:11;;;;;;;3.20;3.00;;;3.70;99.90;;;;;;5086491;28;20409;-65
2023/11/17 05:07:39;;;;;;;3.80;3.50;;;3.70;99.90;;;;;;5085955;28;20610;-65
2023/11/17 05:10:08;;;;;;;3.60;3.40;;;3.70;99.90;;;;;;5085844;28;21002;-65
2023/11/17 05:12:35;;;;;;;3.10;2.90;;;3.70;99.90;;;;;;5085270;28;20199;-64
2023/11/17 05:15:02;;;;;;;3.70;3.30;;;3.70;99.90;;;;;;5085889;28;20206;-65
2023/11/17 05:17:33;;;;;;;3.90;3.27;;;3.70;99.90;;;;;;5085314;28;20877;-65
2023/11/17 05:20:01;;;;;;;5.30;3.50;;;3.80;99.90;;;;;;5085851;28;20277;-66
2023/11/17 05:22:29;;;;;;;4.27;3.20;;;3.70;99.90;;;;;;5085791;28;20249;-65
2023/11/17 05:24:55;;;;;;;3.27;3.07;;;3.80;99.90;;;;;;5085949;28;20681;-65
2023/11/17 05:27:22;;;;;;;3.20;2.90;;;3.80;99.90;;;;;;5085246;28;20213;-65
2023/11/17 05:29:49;;;;;;;3.40;3.20;;;3.80;99.90;;;;;;5065439;28;20207;-65
2023/11/17 05:32:15;;;;;;;3.00;2.80;;;3.80;99.90;;;;;;5074829;28;20211;-66
2023/11/17 05:34:42;;;;;;;3.30;3.00;;;3.80;99.90;;;;;;5085812;28;20298;-66
2023/11/17 05:37:10;;;;;;;2.87;2.77;;;3.80;99.90;;;;;;5085459;28;20325;-68
2023/11/17 05:39:37;;;;;;;3.40;3.20;;;3.80;99.90;;;;;;5085543;28;20203;-65
2023/11/17 05:42:04;;;;;;;3.27;3.07;;;3.80;99.90;;;;;;5085736;28;20233;-66
2023/11/17 05:44:31;;;;;;;3.37;3.17;;;3.80;99.90;;;;;;5065880;28;20288;-66
2023/11/17 05:46:59;;;;;;;3.40;3.10;;;3.80;99.90;;;;;;5081482;28;20206;-66
2023/11/17 05:49:26;;;;;;;3.20;2.90;;;3.80;99.90;;;;;;5085146;28;20578;-66
2023/11/17 05:51:54;;;;;;;3.30;3.00;;;3.80;99.90;;;;;;5085285;28;20206;-66
2023/11/17 05:54:22;;;;;;;3.10;2.90;;;3.80;99.90;;;;;;5085744;28;20574;-67
2023/11/17 05:56:49;;;;;;;2.83;2.73;;;3.80;99.90;;;;;;5085622;28;20672;-66
2023/11/17 05:59:16;;;;;;;2.60;2.50;;;3.80;99.90;;;;;;5086444;28;20708;-65
2023/11/17 06:01:43;;;;;;;2.77;2.67;;;3.80;99.90;;;;;;5086429;28;20252;-65
2023/11/17 06:04:11;;;;;;;3.17;2.97;;;3.80;99.90;;;;;;5085245;28;20291;-65
2023/11/17 06:06:39;;;;;;;3.37;3.17;;;3.80;99.90;;;;;;5084823;28;20225;-67
2023/11/17 06:09:07;;;;;;;3.40;3.10;;;3.80;99.90;;;;;;5084484;28;20638;-65
2023/11/17 06:11:36;;;;;;;3.43;3.23;;;3.80;99.90;;;;;;5084460;28;20221;-65
2023/11/17 06:14:04;;;;;;;3.40;3.10;;;3.80;99.90;;;;;;5085058;28;20262;-65
2023/11/17 06:16:32;;;;;;;3.70;3.20;;;3.80;99.90;;;;;;5085356;28;20215;-65
2023/11/17 06:19:01;;;;;;;3.40;3.20;;;3.80;99.90;;;;;;5085435;28;20374;-65
2023/11/17 06:21:28;;;;;;;4.10;3.80;;;3.80;99.90;;;;;;5084971;28;20296;-66
2023/11/17 06:23:55;;;;;;;3.93;3.10;;;3.80;99.90;;;;;;5104205;28;20851;-64
2023/11/17 06:26:23;;;;;;;3.73;3.33;;;3.80;99.90;;;;;;5105248;28;20298;-65
2023/11/17 06:28:51;;;;;;;3.90;3.47;;;3.80;99.90;;;;;;5093342;28;20211;-65
2023/11/17 06:31:18;;;;;;;3.77;3.53;;;3.80;99.90;;;;;;5084626;28;20760;-65
2023/11/17 06:33:45;;;;;;;4.20;3.80;;;3.80;99.90;;;;;;5084016;28;20288;-65
2023/11/17 06:36:12;;;;;;;3.83;3.53;;;3.80;99.90;;;;;;5084453;28;20233;-65
2023/11/17 06:38:39;;;;;;;4.03;3.77;;;3.80;99.90;;;;;;5084531;28;20234;-65
2023/11/17 06:41:06;;;;;;;3.80;3.50;;;3.80;99.90;;;;;;5084518;28;20379;-65
2023/11/17 06:43:33;;;;;;;5.33;3.33;;;3.80;99.90;;;;;;5084422;28;20264;-65
2023/11/17 06:46:01;;;;;;;4.77;3.33;;;3.80;99.90;;;;;;5087244;28;20255;-65
2023/11/17 06:48:28;;;;;;;4.07;3.47;;;3.80;99.90;;;;;;5088238;28;20280;-65
2023/11/17 06:50:56;;;;;;;3.70;3.40;;;3.90;99.90;;;;;;5088408;28;20382;-65
2023/11/17 06:53:23;;;;;;;3.67;3.40;;;3.90;99.90;;;;;;5082330;28;20563;-65
2023/11/17 06:55:50;;;;;;;3.70;3.33;;;3.90;99.90;;;;;;5088572;28;20217;-65
2023/11/17 06:58:17;;;;;;;3.30;3.07;;;4.00;99.90;;;;;;5089513;28;20206;-65
2023/11/17 07:00:46;;;;;;;4.30;3.17;;;4.00;99.90;;;;;;5087952;28;20206;-65
2023/11/17 07:03:14;;;;;;;3.40;3.10;;;4.00;99.90;;;;;;5088181;28;20207;-65
2023/11/17 07:05:42;;;;;;;3.17;2.97;;;4.00;99.90;;;;;;5088090;28;20203;-65
2023/11/17 07:08:10;;;;;;;3.50;3.07;;;4.00;99.90;;;;;;5087934;28;20291;-65
2023/11/17 07:10:37;;;;;;;3.17;2.97;;;3.90;99.90;;;;;;5088258;28;20307;-65
2023/11/17 07:13:04;;;;;;;3.20;3.00;;;4.00;99.90;;;;;;5088757;28;20211;-65
2023/11/17 07:15:33;;;;;;;4.10;3.30;;;4.00;99.90;;;;;;5087417;28;20203;-65
2023/11/17 07:18:00;;;;;;;3.57;3.30;;;3.90;99.90;;;;;;5087665;28;20227;-65
2023/11/17 07:20:29;;;;;;;4.73;3.10;;;4.00;99.90;;;;;;5088291;28;20207;-65
2023/11/17 07:22:57;;;;;;;3.87;3.57;;;3.90;99.90;;;;;;5087982;28;20235;-65
2023/11/17 07:25:25;;;;;;;3.60;3.37;;;3.90;99.90;;;;;;5087620;28;20688;-65
2023/11/17 07:27:52;;;;;;;3.53;3.20;;;3.90;99.90;;;;;;5087610;28;20214;-65
2023/11/17 07:30:19;;;;;;;3.03;2.83;;;3.90;99.90;;;;;;5087734;28;20296;-65
2023/11/17 07:32:47;;;;;;;3.50;3.30;;;4.00;99.90;;;;;;5088242;28;20214;-65
2023/11/17 07:35:14;;;;;;;3.40;3.20;;;3.90;99.90;;;;;;5088222;28;20205;-65
2023/11/17 07:37:41;;;;;;;3.87;3.50;;;3.90;99.90;;;;;;5087911;28;20917;-65
2023/11/17 07:40:09;;;;;;;3.47;3.27;;;3.90;99.90;;;;;;5088171;28;20253;-65
2023/11/17 07:42:39;;;;;;;3.93;3.30;;;3.90;99.90;;;;;;5087759;28;20229;-65
2023/11/17 07:45:07;;;;;;;3.63;3.43;;;3.90;99.90;;;;;;5088118;28;20214;-65
2023/11/17 07:47:36;;;;;;;3.70;3.40;;;4.00;99.90;;;;;;5087261;28;20221;-65
2023/11/17 07:50:07;;;;;;;3.30;3.10;;;3.90;99.90;;;;;;5087780;28;20213;-65
2023/11/17 07:52:34;;;;;;;3.20;3.00;;;4.00;99.90;;;;;;5087834;28;20315;-65
2023/11/17 07:55:03;;;;;;;3.47;3.27;;;4.00;99.90;;;;;;5087915;28;20623;-65
2023/11/17 07:57:30;;;;;;;3.67;3.30;;;4.00;99.90;;;;;;5085760;28;20238;-66
2023/11/17 07:59:57;;;;;;;4.33;3.40;;;4.00;99.90;;;;;;5087738;28;20210;-65
2023/11/17 08:02:25;;;;;;;3.70;3.43;;;4.10;99.90;;;;;;5087608;28;20235;-65
2023/11/17 08:04:52;;;;;;;3.80;3.60;;;4.10;99.90;;;;;;5088019;28;20264;-65
2023/11/17 08:07:19;;;;;;;3.40;3.20;;;4.10;99.90;;;;;;5086974;28;20333;-65
2023/11/17 08:09:45;;;;;;;3.30;3.10;;;4.20;99.90;;;;;;5087500;28;20203;-65
2023/11/17 08:12:14;;;;;;;3.50;3.30;;;4.10;99.90;;;;;;5087115;28;20293;-65
2023/11/17 08:14:41;;;;;;;3.30;3.00;;;4.10;99.90;;;;;;5087098;28;20229;-65
2023/11/17 08:17:08;;;;;;;3.57;3.27;;;4.10;99.90;;;;;;5086374;28;20954;-65
2023/11/17 08:19:35;;;;;;;3.23;3.03;;;4.10;99.90;;;;;;5086428;28;20834;-66
2023/11/17 08:22:03;;;;;;;3.43;3.23;;;4.10;99.90;;;;;;5086701;28;20775;-65
2023/11/17 08:24:31;;;;;;;3.40;3.10;;;4.10;99.90;;;;;;5086845;28;20217;-67
2023/11/17 08:26:58;;;;;;;3.47;3.27;;;4.10;99.90;;;;;;5087183;28;20202;-65
2023/11/17 08:29:27;;;;;;;3.40;3.00;;;4.10;99.90;;;;;;5086992;28;20249;-64
2023/11/17 08:31:54;;;;;;;3.93;3.40;;;4.20;99.90;;;;;;5086701;28;20245;-65
2023/11/17 08:34:22;;;;;;;3.20;3.00;;;4.20;99.90;;;;;;5086966;28;20252;-65
2023/11/17 08:36:50;;;;;;;3.40;2.97;;;4.20;99.90;;;;;;5085738;28;20922;-64
2023/11/17 08:39:25;;;;;;;2.87;2.77;;;4.20;99.90;;;;;;5087255;28;20195;-64
2023/11/17 08:41:54;;;;;;;3.20;3.00;;;4.20;99.90;;;;;;5086549;28;20319;-66
2023/11/17 08:44:22;;;;;;;3.43;3.23;;;4.20;99.90;;;;;;5086883;28;20195;-65
2023/11/17 08:46:51;;;;;;;3.30;3.00;;;4.20;99.90;;;;;;5086588;28;20249;-65
2023/11/17 08:49:17;;;;;;;3.50;3.30;;;4.30;99.90;;;;;;5086839;28;20206;-66
2023/11/17 08:51:46;;;;;;;3.17;2.97;;;4.30;99.90;;;;;;5086805;28;20221;-65
2023/11/17 08:54:13;;;;;;;3.53;3.23;;;4.30;99.90;;;;;;5086086;28;20199;-65
2023/11/17 08:56:41;;;;;;;3.20;3.00;;;4.30;99.90;;;;;;5086597;28;20646;-65
2023/11/17 08:59:08;;;;;;;3.30;3.10;;;4.30;99.90;;;;;;5086871;28;20206;-65
2023/11/17 09:01:35;;;;;;;3.50;2.97;;;4.30;99.90;;;;;;5086423;28;20213;-65
2023/11/17 09:04:04;;;;;;;3.50;3.20;;;4.30;99.90;;;;;;5086491;28;20294;-65
2023/11/17 09:06:31;;;;;;;3.20;3.00;;;4.30;99.90;;;;;;5085940;28;20541;-66
2023/11/17 09:08:58;;;;;;;3.20;3.00;;;4.30;99.90;;;;;;5085873;28;20317;-65
2023/11/17 09:11:25;;;;;;;3.60;2.93;;;4.30;99.90;;;;;;5086268;28;20203;-65
2023/11/17 09:13:53;;;;;;;3.13;2.93;;;4.40;99.90;;;;;;5086208;28;20701;-65
2023/11/17 09:16:21;;;;;;;3.30;3.10;;;4.40;99.90;;;;;;5085952;28;20274;-65
2023/11/17 09:18:48;;;;;;;3.37;2.90;;;4.50;99.90;;;;;;5086376;28;20214;-66
2023/11/17 09:21:18;;;;;;;3.20;2.97;;;4.50;99.90;;;;;;5086180;28;20209;-65
2023/11/17 09:23:45;;;;;;;3.47;3.17;;;4.50;99.90;;;;;;5086159;28;20230;-65
2023/11/17 09:26:13;;;;;;;2.80;2.60;;;4.50;99.90;;;;;;5085977;28;20207;-65
2023/11/17 09:28:39;;;;;;;3.50;3.20;;;4.50;99.90;;;;;;5086352;28;20210;-65
2023/11/17 09:31:07;;;;;;;3.10;2.90;;;4.50;99.90;;;;;;5086000;28;20898;-66
2023/11/17 09:33:34;;;;;;;3.50;3.30;;;4.50;99.90;;;;;;5085742;28;20953;-65
2023/11/17 09:36:01;;;;;;;3.47;3.17;;;4.60;99.90;;;;;;5085713;28;20318;-67
2023/11/17 09:38:30;;;;;;;3.63;3.33;;;4.60;99.90;;;;;;5086025;28;20664;-68
2023/11/17 09:40:57;;;;;;;3.30;3.03;;;4.60;99.90;;;;;;5073801;28;20216;-66
2023/11/17 09:43:28;;;;;;;3.70;3.50;;;4.60;99.90;;;;;;5083409;28;20348;-67
2023/11/17 09:46:06;;;;;;;3.20;3.00;;;4.60;99.90;;;;;;5083813;28;20296;-67
2023/11/17 09:48:38;;;;;;;3.57;3.37;;;4.60;99.90;;;;;;5083869;28;20199;-66
2023/11/17 09:51:06;;;;;;;3.30;3.10;;;4.60;99.90;;;;;;5083572;28;20252;-67
2023/11/17 09:53:37;;;;;;;3.63;3.43;;;4.60;99.90;;;;;;5083733;28;20749;-65
2023/11/17 09:56:09;;;;;;;3.40;3.20;;;4.60;99.90;;;;;;5084002;28;20263;-67
2023/11/17 09:58:36;;;;;;;3.20;3.00;;;4.70;99.90;;;;;;5084172;28;20199;-66
2023/11/17 10:01:10;;;;;;;3.80;3.50;;;4.70;99.90;;;;;;5083510;28;20217;-66
2023/11/17 10:03:37;;;;;;;2.93;2.73;;;4.70;99.90;;;;;;5083504;28;20219;-66
2023/11/17 10:06:06;;;;;;;3.33;3.03;;;4.70;99.90;;;;;;5083954;28;20301;-67
2023/11/17 10:08:34;;;;;;;3.23;3.00;;;4.70;99.90;;;;;;5083433;28;20309;-66
2023/11/17 10:11:03;;;;;;;3.30;3.10;;;4.70;99.90;;;;;;5083973;28;20791;-66
2023/11/17 10:13:32;;;;;;;3.30;3.10;;;4.70;99.90;;;;;;5083442;28;20321;-65
2023/11/17 10:16:01;;;;;;;3.00;2.83;;;4.70;99.90;;;;;;5082484;28;20322;-65
2023/11/17 10:18:30;;;;;;;3.20;2.90;;;4.70;99.90;;;;;;5082942;28;20210;-67
2023/11/17 10:20:58;;;;;;;2.57;2.47;;;4.70;99.90;;;;;;5082325;28;20203;-67
2023/11/17 10:23:25;;;;;;;2.63;2.23;;;4.80;99.90;;;;;;5084707;28;20600;-67
2023/11/17 10:25:54;;;;;;;2.97;2.80;;;4.80;99.90;;;;;;5084394;28;20337;-66
2023/11/17 10:28:24;;;;;;;2.90;2.80;;;4.80;99.90;;;;;;5084007;28;20199;-66
2023/11/17 10:30:54;;;;;;;2.93;2.73;;;4.90;99.90;;;;;;5084180;28;20203;-66
2023/11/17 10:33:28;;;;;;;2.90;2.80;;;4.90;99.90;;;;;;5083953;28;20680;-66
2023/11/17 10:36:04;;;;;;;2.60;2.50;;;4.90;99.90;;;;;;5084591;28;20194;-67
2023/11/17 10:38:34;;;;;;;3.30;3.00;;;4.90;99.90;;;;;;5083813;28;20206;-67
2023/11/17 10:41:14;;;;;;;2.77;2.60;;;4.90;99.90;;;;;;5083586;28;20248;-67
2023/11/17 10:43:50;;;;;;;2.80;2.70;;;4.90;99.90;;;;;;5082007;28;20256;-67
2023/11/17 10:46:20;;;;;;;3.13;2.93;;;4.90;99.90;;;;;;5082993;28;20234;-67
2023/11/17 10:48:47;;;;;;;2.50;2.40;;;4.90;99.90;;;;;;5082497;28;20187;-67
2023/11/17 10:51:18;;;;;;;2.70;2.60;;;4.90;99.90;;;;;;5083228;28;20207;-66
2023/11/17 10:54:01;;;;;;;2.40;2.30;;;4.90;99.90;;;;;;5100794;28;20289;-66
2023/11/17 10:56:28;;;;;;;2.50;2.40;;;5.00;99.90;;;;;;5103289;28;20198;-66
2023/11/17 10:58:58;;;;;;;2.70;2.53;;;5.00;99.90;;;;;;5098259;28;20285;-66
2023/11/17 11:01:30;;;;;;;2.50;2.40;;;5.10;99.90;;;;;;5082614;28;20226;-66
2023/11/17 11:03:57;;;;;;;2.83;2.57;;;5.10;99.90;;;;;;5083244;28;20226;-67
2023/11/17 11:06:26;;;;;;;2.50;2.40;;;5.10;99.90;;;;;;5081522;28;20206;-67
2023/11/17 11:08:54;;;;;;;2.47;2.27;;;5.10;99.90;;;;;;5082194;28;20746;-67
2023/11/17 11:11:23;;;;;;;2.30;2.10;;;5.10;99.90;;;;;;5082028;28;20306;-67
2023/11/17 11:13:54;;;;;;;2.40;2.30;;;5.10;99.90;;;;;;5082159;28;20222;-67
2023/11/17 11:16:25;;;;;;;2.33;2.23;;;5.10;99.90;;;;;;5082301;28;20216;-67
2023/11/17 11:18:53;;;;;;;2.53;2.30;;;5.10;99.90;;;;;;5082988;28;20265;-67
2023/11/17 11:21:22;;;;;;;2.67;2.50;;;5.10;99.90;;;;;;5082148;28;20256;-67
2023/11/17 11:23:50;;;;;;;2.50;2.30;;;5.10;99.90;;;;;;5082531;28;20238;-67
2023/11/17 11:26:18;;;;;;;2.50;2.30;;;5.10;99.90;;;;;;5082928;28;20215;-67
2023/11/17 11:28:46;;;;;;;2.70;2.50;;;5.10;99.90;;;;;;5082658;28;20206;-67
2023/11/17 11:31:15;;;;;;;2.40;2.30;;;5.10;99.90;;;;;;5077481;28;20208;-66
2023/11/17 11:33:43;;;;;;;2.50;2.30;;;5.10;99.90;;;;;;5084025;28;20305;-67
2023/11/17 11:36:11;;;;;;;3.87;2.30;;;5.10;99.90;;;;;;5086430;28;20702;-67
2023/11/17 11:38:39;;;;;;;2.30;2.20;;;5.10;99.90;;;;;;5086377;28;20290;-67
2023/11/17 11:41:11;;;;;;;2.30;2.20;;;5.10;99.90;;;;;;5073443;28;20308;-67
2023/11/17 11:43:39;;;;;;;2.67;2.47;;;5.20;99.90;;;;;;5087577;28;20222;-67
2023/11/17 11:46:09;;;;;;;2.30;2.20;;;5.20;99.90;;;;;;5086490;28;20223;-67
2023/11/17 11:48:38;;;;;;;2.67;2.47;;;5.20;99.90;;;;;;5083506;28;20205;-67
2023/11/17 11:51:11;;;;;;;8.00;3.00;;;5.20;99.90;;;;;;5086863;28;20229;-66
2023/11/17 11:53:43;;;;;;;3.60;2.50;;;5.20;99.90;;;;;;5099916;28;20242;-67
2023/11/17 11:56:14;;;;;;;2.20;2.10;;;5.20;99.90;;;;;;5086895;28;20242;-67
2023/11/17 11:58:42;;;;;;;2.70;2.50;;;5.30;99.90;;;;;;5086913;28;20209;-67
2023/11/17 12:01:10;;;;;;;2.60;2.50;;;5.30;99.90;;;;;;5086657;28;20290;-67
2023/11/17 12:03:37;;;;;;;2.53;2.43;;;5.30;99.90;;;;;;5086829;28;20235;-67
2023/11/17 12:06:04;;;;;;;2.50;2.40;;;5.30;99.90;;;;;;5086505;28;20631;-65
2023/11/17 12:08:33;;;;;;;2.90;2.70;;;5.30;99.90;;;;;;5086202;28;20593;-65
2023/11/17 12:11:10;;;;;;;2.97;2.77;;;5.30;99.90;;;;;;5086443;28;20323;-67
2023/11/17 12:13:44;;;;;;;2.80;2.60;;;5.30;99.90;;;;;;5086714;28;20206;-65
2023/11/17 12:16:14;;;;;;;3.13;1.93;;;5.30;99.90;;;;;;5086462;28;20277;-65
2023/11/17 12:18:43;;;;;;;2.33;2.23;;;5.30;99.90;;;;;;5086356;28;20822;-66
2023/11/17 12:21:18;;;;;;;2.60;2.40;;;5.30;99.90;;;;;;5086927;28;20199;-65
2023/11/17 12:23:59;;;;;;;2.57;2.40;;;5.30;99.90;;;;;;5086113;28;20703;-65
2023/11/17 12:26:28;;;;;;;2.23;2.07;;;5.30;99.90;;;;;;5085654;28;20793;-65
2023/11/17 12:28:56;;;;;;;2.57;2.37;;;5.30;99.90;;;;;;5085921;28;21012;-65
2023/11/17 12:31:24;;;;;;;2.13;1.90;;;5.30;99.90;;;;;;5092782;28;20214;-65
2023/11/17 12:33:53;;;;;;;2.23;2.10;;;5.30;99.90;;;;;;5106755;28;20289;-66
2023/11/17 12:36:21;;;;;;;2.57;2.40;;;5.30;99.90;;;;;;5095185;28;20290;-65
2023/11/17 12:38:53;;;;;;;2.43;2.23;;;5.30;99.90;;;;;;5085513;28;20199;-65
2023/11/17 12:41:22;;;;;;;2.53;2.33;;;5.30;99.90;;;;;;5085648;28;20222;-65
2023/11/17 12:43:51;;;;;;;2.50;2.30;;;5.30;99.90;;;;;;5085311;28;20237;-65
2023/11/17 12:46:18;;;;;;;2.57;2.37;;;5.30;99.90;;;;;;5083778;28;20234;-67
2023/11/17 12:48:47;;;;;;;2.30;2.20;;;5.30;99.90;;;;;;5085719;28;20203;-65
2023/11/17 12:51:24;;;;;;;2.70;2.50;;;5.30;99.90;;;;;;5086063;28;20211;-65
2023/11/17 12:53:54;;;;;;;2.17;2.07;;;5.30;99.90;;;;;;5077691;28;20251;-66
2023/11/17 12:56:21;;;;;;;2.60;2.40;;;5.30;99.90;;;;;;5073247;28;20203;-65
2023/11/17 12:58:48;;;;;;;2.60;2.47;;;5.30;99.90;;;;;;5081133;28;20207;-65
2023/11/17 13:01:16;;;;;;;2.43;2.33;;;5.40;99.90;;;;;;5076521;28;20207;-66
2023/11/17 13:03:43;;;;;;;2.30;2.20;;;5.40;99.90;;;;;;5084913;28;20236;-65